createdAt,value
2023-01-19T00:08:36.395Z,99521.84
2023-01-19T00:18:39.465Z,99527.75
2023-01-19T00:28:44.901Z,99528.59
2023-01-19T00:38:49.602Z,99531.97
2023-01-19T00:48:55.721Z,99534.53
2023-01-19T00:58:59.078Z,99531.13
2023-01-19T01:09:12.176Z,99533.69
2023-01-19T01:19:16.010Z,99532.00
2023-01-19T01:29:20.467Z,99539.63
2023-01-19T01:39:23.439Z,99547.22
2023-01-19T01:49:27.996Z,99548.06
2023-01-19T01:59:40.054Z,99556.50
2023-01-19T02:10:02.428Z,99556.50
2023-01-19T02:20:06.418Z,99558.19
2023-01-19T02:30:14.013Z,99559.88
2023-01-19T02:40:20.975Z,99559.03
2023-01-19T02:50:46.125Z,99579.28
2023-01-19T03:00:57.386Z,99570.00
2023-01-19T03:11:04.319Z,99568.31
2023-01-19T03:21:13.258Z,99564.09
2023-01-19T03:31:21.300Z,99557.34
2023-01-19T03:41:27.398Z,99552.28
2023-01-19T03:51:31.790Z,99556.53
2023-01-19T04:01:35.100Z,99564.13
2023-01-19T04:11:40.707Z,99560.75
2023-01-19T04:21:43.701Z,99566.66
2023-01-19T04:31:47.926Z,99575.09
2023-01-19T04:41:53.003Z,99564.09
2023-01-19T04:52:01.781Z,99566.63
2023-01-19T05:02:06.128Z,99555.59
2023-01-19T05:12:13.537Z,99558.94
2023-01-19T05:22:17.231Z,99546.28
2023-01-19T05:32:21.732Z,99560.59
2023-01-19T05:42:25.076Z,99569.91
2023-01-19T05:52:29.660Z,99578.31
2023-01-19T06:02:32.933Z,99578.31
2023-01-19T06:12:37.370Z,99587.59
2023-01-19T06:22:40.289Z,99592.66
2023-01-19T06:32:44.819Z,99596.03
2023-01-19T06:42:49.739Z,99609.66
2023-01-19T06:53:22.407Z,99625.75
2023-01-19T07:03:29.227Z,99630.84
2023-01-19T07:13:34.336Z,99640.16
2023-01-19T07:23:39.007Z,99649.44
2023-01-19T07:33:43.267Z,99660.44
2023-01-19T07:43:46.305Z,99673.13
2023-01-19T07:53:52.427Z,99690.00
2023-01-19T08:03:55.603Z,99696.78
2023-01-19T08:14:00.623Z,99709.44
2023-01-19T08:24:04.377Z,99710.28
2023-01-19T08:34:10.544Z,99705.22
2023-01-19T08:44:15.862Z,99718.75
2023-01-19T08:54:21.988Z,99733.97
2023-01-19T09:04:25.817Z,99740.72
2023-01-19T09:14:30.373Z,99749.16
2023-01-19T09:24:35.443Z,99759.25
2023-01-19T09:34:39.868Z,99775.38
2023-01-19T09:44:46.091Z,99776.19
2023-01-19T09:54:58.937Z,99777.81
2023-01-19T10:05:27.955Z,99785.47
2023-01-19T10:15:43.652Z,99793.06
2023-01-19T10:25:48.421Z,99803.25
2023-01-19T10:35:53.053Z,99804.94
2023-01-19T10:46:32.486Z,99807.47
2023-01-19T10:56:40.085Z,99808.28
2023-01-19T11:06:44.335Z,99815.91
2023-01-19T11:16:55.165Z,99808.25
2023-01-19T11:27:03.200Z,99816.66
2023-01-19T11:37:27.313Z,99812.41
2023-01-19T11:47:36.885Z,99814.09
2023-01-19T11:57:47.634Z,99821.66
2023-01-19T12:07:52.114Z,99819.81
2023-01-19T12:18:00.628Z,99823.84
2023-01-19T12:28:05.161Z,99818.50
2023-01-19T12:38:32.024Z,99821.31
2023-01-19T12:48:35.784Z,99820.47
2023-01-19T12:58:40.384Z,99819.63
2023-01-19T13:09:01.431Z,99824.56
2023-01-19T13:19:22.916Z,99827.53
2023-01-19T13:29:31.153Z,99839.25
2023-01-19T13:39:42.352Z,99834.19
2023-01-19T13:50:23.944Z,99836.25
2023-01-19T14:00:31.065Z,99843.19
2023-01-19T14:10:36.501Z,99856.09
2023-01-19T14:20:48.437Z,99863.72
2023-01-19T14:30:55.780Z,99871.38
2023-01-19T14:41:03.924Z,99866.25
2023-01-19T14:51:09.346Z,99879.72
2023-01-19T15:01:15.188Z,99879.75
2023-01-19T15:11:27.857Z,99884.88
2023-01-19T15:21:32.498Z,99892.50
2023-01-19T15:31:37.209Z,99895.94
2023-01-19T15:42:33.496Z,99907.00
2023-01-19T15:52:39.093Z,99906.22
2023-01-19T16:02:44.637Z,99913.03
2023-01-19T16:12:49.256Z,99925.75
2023-01-19T16:22:56.474Z,99935.91
2023-01-19T16:33:00.365Z,99945.22
2023-01-19T16:43:05.232Z,99941.84
2023-01-19T16:53:08.374Z,99951.19
2023-01-19T17:03:14.165Z,99964.78
2023-01-19T17:13:17.464Z,99975.81
2023-01-19T17:23:22.269Z,99976.69
2023-01-19T17:33:25.659Z,99988.56
2023-01-19T17:43:30.998Z,100000.41
2023-01-19T17:53:54.837Z,100012.31
2023-01-19T18:03:59.915Z,100010.59
2023-01-19T18:14:03.510Z,100014.00
2023-01-19T18:24:08.932Z,100014.00
2023-01-19T18:34:11.932Z,100014.00
2023-01-19T18:44:16.454Z,100014.03
2023-01-19T18:54:21.044Z,100010.66
2023-01-19T19:04:25.832Z,100010.63
2023-01-19T19:14:29.073Z,100031.81
2023-01-19T19:24:33.469Z,100040.31
2023-01-19T19:34:36.824Z,100042.78
2023-01-19T19:44:41.964Z,100047.03
2023-01-19T19:54:45.668Z,100059.75
2023-01-19T20:04:50.775Z,100071.59
2023-01-19T20:15:24.961Z,100082.56
2023-01-19T20:25:29.986Z,100091.88
2023-01-19T20:35:33.894Z,100095.34
2023-01-19T20:45:38.362Z,100096.13
2023-01-19T20:55:42.469Z,100106.22
2023-01-19T21:05:49.420Z,100123.22
2023-01-19T21:15:52.620Z,100126.63
2023-01-19T21:25:59.758Z,100146.94
2023-01-19T21:36:03.416Z,100157.94
2023-01-19T21:46:12.736Z,100165.59
2023-01-19T21:56:17.314Z,100164.75
2023-01-19T22:06:22.303Z,100180.00
2023-01-19T22:16:26.958Z,100187.56
2023-01-19T22:37:02.931Z,100207.91
2023-01-19T22:47:07.425Z,100220.63
2023-01-19T22:57:12.027Z,100226.53
2023-01-19T23:07:16.450Z,100234.13
2023-01-19T23:17:19.702Z,100239.28
2023-01-19T23:27:24.119Z,100243.50
2023-01-19T23:37:27.546Z,100249.47
2023-01-19T23:47:31.832Z,100246.06
2023-01-19T23:57:34.589Z,100260.38
